Sioux Arrow — WAG6168 — position and weather

sailwx.info

Track history (hours):
 
Tides and Currents Weather Stations Pressure Air Temp Water Temp Dewpoint Dewpoint Depression Visibility Wind Speed Wind Dir Waves Ship Positions

Sioux Arrow

Owner: HARMON, JACK L, PORT ANGELES, WA. More information available from US FCC via Universal Licensing System and Coast Guard Vessel Documentation Center.

Last reported at 2017-Jun-28 08:52 UTC. Time now 2017-Jun-28 10:26 UTC.
Position N 48°31' W 122°36'.

Type: Port tender. MMSI: 366973370.

Date/timePositionNaut miles runAvg speedWind from/ knotsBaromVisibWave heightAir tempDewpointWater temp
2017-Jun-28 08:52N 48°31' W 122°36'3 8.3
2017-Jun-28 08:30N 48°33' W 122°34'1 1.5
2017-Jun-28 08:00N 48°34' W 122°34'4 7.3
2017-Jun-28 07:30N 48°31' W 122°36'0 0.0
2017-Jun-28 07:00N 48°31' W 122°36'0 0.0
2017-Jun-28 06:30N 48°31' W 122°36'0 0.0
2017-Jun-28 06:00N 48°31' W 122°36'0 0.0
2017-Jun-28 05:30N 48°31' W 122°36'0 0.0
2017-Jun-28 05:00N 48°31' W 122°36'0 0.0
2017-Jun-28 04:30N 48°31' W 122°36'0 0.0
2017-Jun-28 04:00N 48°31' W 122°36'2 4.5
2017-Jun-28 03:30N 48°32' W 122°34'5 9.3
2017-Jun-28 03:00N 48°37' W 122°34'3 6.1
2017-Jun-28 02:30N 48°34' W 122°34'4 7.3
2017-Jun-28 02:00N 48°31' W 122°36'0 0.0
2017-Jun-28 01:30N 48°31' W 122°36'0 0.0
2017-Jun-28 01:00N 48°31' W 122°36'0 0.0
2017-Jun-28 00:30N 48°31' W 122°36'0 0.0
2017-Jun-28 00:00N 48°31' W 122°36'0 0.5
2017-Jun-27 23:30N 48°31' W 122°36'1 2.3
2017-Jun-27 23:00N 48°31' W 122°34'1 1.8
2017-Jun-27 22:30N 48°31' W 122°36'5 7.7
2017-Jun-27 21:54N 48°35' W 122°34'0 1.2
2017-Jun-27 21:30N 48°35' W 122°34'1 1.7
2017-Jun-27 21:00N 48°35' W 122°33'2 4.5
2017-Jun-27 20:30N 48°33' W 122°34'3 5.8
2017-Jun-27 20:00N 48°31' W 122°36'0 0.0
2017-Jun-27 19:30N 48°31' W 122°36'0 0.1
2017-Jun-27 19:00N 48°31' W 122°36'0 0.1
2017-Jun-27 18:30N 48°31' W 122°36'0 0.0
2017-Jun-27 18:00N 48°31' W 122°36'0 0.0
2017-Jun-27 17:30N 48°31' W 122°36'0 0.0
2017-Jun-27 17:00N 48°31' W 122°36'0 0.0
2017-Jun-27 16:30N 48°31' W 122°36'0 0.3
2017-Jun-27 16:00N 48°31' W 122°36'611.0
2017-Jun-27 15:30N 48°36' W 122°32'3 6.3
2017-Jun-27 14:59N 48°33' W 122°35'2 5.3
2017-Jun-27 14:30N 48°31' W 122°36'0 0.0
2017-Jun-27 06:56N 48°31' W 122°36'3 8.0
2017-Jun-27 06:30N 48°34' W 122°34'0 0.4
2017-Jun-27 06:00N 48°34' W 122°34'4 7.2
2017-Jun-27 05:30N 48°31' W 122°36'611.0
2017-Jun-27 04:59N 48°35' W 122°32'1 1.9
2017-Jun-27 04:30N 48°36' W 122°33'3 6.9
2017-Jun-27 04:00N 48°33' W 122°34'2 4.9
2017-Jun-27 03:30N 48°31' W 122°36'0 0.0
2017-Jun-27 03:00N 48°31' W 122°36'0 0.0
2017-Jun-27 02:30N 48°31' W 122°36'3 5.2
2017-Jun-27 02:00N 48°33' W 122°34'3 5.7
2017-Jun-27 01:30N 48°35' W 122°33'3 6.2
2017-Jun-27 01:00N 48°32' W 122°34'2 4.6
2017-Jun-27 00:30N 48°31' W 122°36'0 0.0
2017-Jun-27 00:00N 48°31' W 122°36'2 3.2
2017-Jun-26 23:30N 48°31' W 122°34'0 0.4
2017-Jun-26 23:00N 48°31' W 122°34'2 3.5
2017-Jun-26 22:30N 48°31' W 122°36'0 0.0
2017-Jun-26 22:00N 48°31' W 122°36'0 0.0
2017-Jun-26 21:30N 48°31' W 122°36'0 0.0
2017-Jun-26 21:00N 48°31' W 122°36'0 0.0
2017-Jun-26 20:30N 48°31' W 122°36'0 0.0
2017-Jun-26 20:00N 48°31' W 122°36'1 2.8
2017-Jun-26 19:30N 48°31' W 122°34'0 0.2
2017-Jun-26 19:00N 48°31' W 122°35'1 2.7
2017-Jun-26 18:30N 48°31' W 122°36'0 0.0
2017-Jun-26 18:00N 48°31' W 122°36'1 1.7
2017-Jun-26 17:30N 48°31' W 122°35'1 1.7
2017-Jun-26 17:00N 48°31' W 122°36'0 0.0
2017-Jun-26 16:30N 48°31' W 122°36'0 0.0
2017-Jun-26 16:00N 48°31' W 122°36'510.3
2017-Jun-26 15:30N 48°36' W 122°35'5 9.4
2017-Jun-26 15:00N 48°31' W 122°34'1 2.8
2017-Jun-26 14:30N 48°31' W 122°36'0 0.0
2017-Jun-26 13:30N 48°31' W 122°36'0 0.0
2017-Jun-26 13:00N 48°31' W 122°36'0 0.0
2017-Jun-26 12:30N 48°31' W 122°36'0 0.0
2017-Jun-26 12:00N 48°31' W 122°36'0 0.4
2017-Jun-26 11:30N 48°31' W 122°36'4 7.6
2017-Jun-26 11:00N 48°35' W 122°36'4 7.7
2017-Jun-26 10:30N 48°31' W 122°36'0 0.0
2017-Jun-26 03:28N 48°31' W 122°36'1 2.9
2017-Jun-26 03:00N 48°31' W 122°35'4 8.1
2017-Jun-26 02:31N 48°35' W 122°32'4 7.4
2017-Jun-26 02:00N 48°32' W 122°34'2 3.3
2017-Jun-26 01:30N 48°31' W 122°37'0 0.1
2017-Jun-26 01:01N 48°31' W 122°36'0 0.0
2017-Jun-26 00:31N 48°31' W 122°36'0 0.1
2017-Jun-26 00:01N 48°31' W 122°36'0 0.1
2017-Jun-25 23:31N 48°31' W 122°36'0 0.0
2017-Jun-25 23:01N 48°31' W 122°36'3 5.2
2017-Jun-25 22:30N 48°33' W 122°34'3 6.2
2017-Jun-25 22:01N 48°36' W 122°34'510.8
2017-Jun-25 21:31N 48°31' W 122°36'0 0.1
2017-Jun-25 21:01N 48°31' W 122°36'0 0.0
2017-Jun-25 20:31N 48°31' W 122°36'0 0.0
2017-Jun-25 20:01N 48°31' W 122°36'0 0.6
2017-Jun-25 19:30N 48°31' W 122°36'0 0.6
2017-Jun-25 19:00N 48°31' W 122°36'0 0.0
2017-Jun-25 18:30N 48°31' W 122°36'4 7.7
2017-Jun-25 17:58N 48°34' W 122°34'2 4.4
2017-Jun-25 17:30N 48°36' W 122°33'510.1
2017-Jun-25 17:00N 48°31' W 122°35'1 2.4
2017-Jun-25 16:30N 48°31' W 122°36'0 0.0
2017-Jun-25 16:00N 48°31' W 122°36'1 1.5
2017-Jun-25 15:30N 48°31' W 122°35'1 1.2
2017-Jun-25 15:00N 48°31' W 122°34'1 1.4
2017-Jun-25 14:00N 48°31' W 122°36'4 7.7
2017-Jun-25 13:30N 48°35' W 122°36'2 4.5
2017-Jun-25 13:00N 48°33' W 122°34'2 4.8
2017-Jun-25 12:30N 48°31' W 122°36'2 4.3
2017-Jun-25 12:00N 48°32' W 122°34'3 6.4
2017-Jun-25 11:30N 48°35' W 122°33'510.5
2017-Jun-25 11:00N 48°31' W 122°36'0 0.0
2017-Jun-25 05:12N 48°31' W 122°36'1 7.4
2017-Jun-25 05:00N 48°31' W 122°34'1 2.9
2017-Jun-25 04:30N 48°31' W 122°36'0 0.0
2017-Jun-25 04:00N 48°31' W 122°36'0 0.0
2017-Jun-25 03:30N 48°31' W 122°36'0 0.0
2017-Jun-25 03:00N 48°31' W 122°36'0 0.0
2017-Jun-25 02:30N 48°31' W 122°36'0 0.0
2017-Jun-25 02:00N 48°31' W 122°36'1 2.8
2017-Jun-25 01:30N 48°31' W 122°34'1 2.8
2017-Jun-25 01:00N 48°31' W 122°36'0 0.0
2017-Jun-25 00:30N 48°31' W 122°36'0 0.0
2017-Jun-25 00:00N 48°31' W 122°36'1 2.8
2017-Jun-24 23:30N 48°31' W 122°34'0 0.1
2017-Jun-24 23:00N 48°31' W 122°34'1 2.7
2017-Jun-24 22:30N 48°31' W 122°36'0 0.0
2017-Jun-24 22:00N 48°31' W 122°36'0 0.1
2017-Jun-24 21:30N 48°31' W 122°36'5 9.7
2017-Jun-24 21:00N 48°35' W 122°36'1 1.4
2017-Jun-24 20:31N 48°36' W 122°35'1 1.5
2017-Jun-24 19:59N 48°36' W 122°34'5 9.7
2017-Jun-24 19:30N 48°31' W 122°35'1 2.8
2017-Jun-24 19:00N 48°31' W 122°36'0 0.0
2017-Jun-24 18:30N 48°31' W 122°36'0 0.0
2017-Jun-24 18:00N 48°31' W 122°36'0 0.0
2017-Jun-24 17:30N 48°31' W 122°36'0 0.3
2017-Jun-24 17:00N 48°31' W 122°36'0 0.3
2017-Jun-24 16:30N 48°31' W 122°36'0 0.0
2017-Jun-24 16:00N 48°31' W 122°36'0 0.0
2017-Jun-24 15:30N 48°31' W 122°36'0 0.0
2017-Jun-24 15:00N 48°31' W 122°36'0 0.0
2017-Jun-24 14:00N 48°31' W 122°36'510.5
2017-Jun-24 13:30N 48°35' W 122°33'5 9.2
2017-Jun-24 13:00N 48°31' W 122°35'1 1.6
2017-Jun-24 12:30N 48°31' W 122°36'1 2.2
2017-Jun-24 12:00N 48°31' W 122°35'0 0.5
2017-Jun-24 11:30N 48°31' W 122°35'1 2.7
2017-Jun-24 11:00N 48°31' W 122°36'0 0.0
2017-Jun-24 04:35N 48°31' W 122°36'0 0.0
2017-Jun-24 04:30N 48°31' W 122°36'0 0.0
2017-Jun-24 04:00N 48°31' W 122°36'0 0.0
2017-Jun-24 03:30N 48°31' W 122°36'0 0.0
2017-Jun-24 03:00N 48°31' W 122°36'0 0.0
2017-Jun-24 02:30N 48°31' W 122°36'0 0.0
2017-Jun-24 02:00N 48°31' W 122°36'2 4.1
2017-Jun-24 01:30N 48°32' W 122°34'4 7.3
2017-Jun-24 01:00N 48°36' W 122°33'611.3
2017-Jun-24 00:30N 48°31' W 122°36'0 0.0
2017-Jun-24 00:00N 48°31' W 122°36'3 5.8
2017-Jun-23 23:30N 48°33' W 122°35'2 4.8
2017-Jun-23 23:00N 48°36' W 122°35'3 5.7
2017-Jun-23 22:30N 48°36' W 122°31'0 0.6
2017-Jun-23 22:00N 48°36' W 122°31'0 0.7
2017-Jun-23 21:30N 48°37' W 122°32'1 1.1
2017-Jun-23 20:54N 48°37' W 122°33'7 3.0
2017-Jun-23 18:42N 48°31' W 122°36'1 3.1
2017-Jun-23 18:13N 48°31' W 122°35'313.1
2017-Jun-23 17:59N 48°35' W 122°34'3 1.4
2017-Jun-23 15:48N 48°31' W 122°35'412.6
2017-Jun-23 15:30N 48°35' W 122°34'1 0.8
2017-Jun-23 14:00N 48°36' W 122°33'2 0.2
2017-Jun-23 03:02N 48°34' W 122°34'0 8.5
2017-Jun-23 03:00N 48°35' W 122°34'0 0.0
2017-Jun-22 22:51N 48°35' W 122°34'2 1.5
2017-Jun-22 21:39N 48°35' W 122°32'0 0.0
2017-Jun-22 21:24N 48°35' W 122°32'1 1.0
2017-Jun-22 20:49N 48°35' W 122°32'410.4
2017-Jun-22 20:26N 48°32' W 122°34'2 4.4
2017-Jun-22 20:00N 48°31' W 122°36'0 0.0
2017-Jun-22 18:33N 48°31' W 122°36'0 0.0
2017-Jun-22 18:30N 48°31' W 122°36'1 0.9
2017-Jun-22 17:51N 48°31' W 122°36'412.1
2017-Jun-22 17:30N 48°35' W 122°34'1 1.9
2017-Jun-22 16:59N 48°35' W 122°33'0 0.5
2017-Jun-22 16:13N 48°36' W 122°33'0 0.0
2017-Jun-22 16:00N 48°36' W 122°33'0 0.6
2017-Jun-22 15:27N 48°35' W 122°33'5 0.5
2017-Jun-22 04:14N 48°31' W 122°36'0 0.0
2017-Jun-22 04:00N 48°31' W 122°36'0 0.0
2017-Jun-22 03:29N 48°31' W 122°36'0 0.0
2017-Jun-22 03:00N 48°31' W 122°36'1 0.2
2017-Jun-21 19:45N 48°31' W 122°35'311.9
2017-Jun-21 19:29N 48°35' W 122°34'2 1.8
2017-Jun-21 18:31N 48°36' W 122°32'0 7.7
2017-Jun-21 18:29N 48°36' W 122°32'6 2.4
2017-Jun-21 16:08N 48°31' W 122°36'0 0.0
2017-Jun-21 16:00N 48°31' W 122°36'0 0.1
2017-Jun-21 15:31N 48°31' W 122°36'1 2.9
2017-Jun-21 15:00N 48°31' W 122°34'2 3.0
2017-Jun-21 14:30N 48°31' W 122°36'0 0.0
2017-Jun-21 04:02N 48°31' W 122°36'0 0.0
2017-Jun-21 04:00N 48°31' W 122°36'0 0.0
2017-Jun-21 03:30N 48°31' W 122°36'0 0.0
2017-Jun-21 03:00N 48°31' W 122°36'0 0.2
2017-Jun-21 02:30N 48°31' W 122°36'0 0.2
2017-Jun-21 02:01N 48°31' W 122°36'2 3.4
2017-Jun-21 01:31N 48°31' W 122°34'2 3.3
2017-Jun-21 01:00N 48°31' W 122°36'0 0.0
2017-Jun-21 00:30N 48°31' W 122°36'0 0.0
2017-Jun-21 00:01N 48°31' W 122°36'0 0.0
2017-Jun-20 23:31N 48°31' W 122°36'0 0.0
2017-Jun-20 23:00N 48°31' W 122°36'0 0.0
2017-Jun-20 22:30N 48°31' W 122°36'0 0.0
2017-Jun-20 22:00N 48°31' W 122°36'1 2.1
2017-Jun-20 21:30N 48°31' W 122°35'1 2.1
2017-Jun-20 21:01N 48°31' W 122°36'0 0.0
2017-Jun-20 20:30N 48°31' W 122°36'0 0.0
2017-Jun-20 20:01N 48°31' W 122°36'0 0.0
2017-Jun-20 19:30N 48°31' W 122°36'0 0.4
2017-Jun-20 19:00N 48°31' W 122°36'510.0
2017-Jun-20 18:29N 48°35' W 122°32'4 8.5
2017-Jun-20 18:00N 48°32' W 122°34'2 3.4
2017-Jun-20 17:30N 48°31' W 122°37'1 1.2
2017-Jun-20 17:01N 48°31' W 122°36'510.6
2017-Jun-20 16:30N 48°36' W 122°32'0 0.5
2017-Jun-20 16:00N 48°35' W 122°32'0 0.5
2017-Jun-20 15:30N 48°35' W 122°33'5 9.9
2017-Jun-20 15:00N 48°31' W 122°36'1 1.4
2017-Jun-20 14:30N 48°31' W 122°37'0 0.0
2017-Jun-20 03:20N 48°31' W 122°36'0 0.0
2017-Jun-20 03:00N 48°31' W 122°36'0 0.0
2017-Jun-20 02:30N 48°31' W 122°36'0 0.0
2017-Jun-20 02:00N 48°31' W 122°36'0 0.2
2017-Jun-20 01:30N 48°31' W 122°36'0 0.2
2017-Jun-20 01:00N 48°31' W 122°36'0 0.0
2017-Jun-20 00:30N 48°31' W 122°36'0 0.0
2017-Jun-20 00:00N 48°31' W 122°36'1 1.9
2017-Jun-19 23:30N 48°31' W 122°35'0 1.0
2017-Jun-19 23:00N 48°31' W 122°34'1 2.9
2017-Jun-19 22:30N 48°31' W 122°36'0 0.0
2017-Jun-19 22:00N 48°31' W 122°36'5 9.8
2017-Jun-19 21:30N 48°35' W 122°34'3 5.2
2017-Jun-19 21:00N 48°33' W 122°34'2 4.9
2017-Jun-19 20:30N 48°31' W 122°36'0 0.0
2017-Jun-19 20:00N 48°31' W 122°36'0 0.0
2017-Jun-19 19:30N 48°31' W 122°36'0 0.0
2017-Jun-19 19:00N 48°31' W 122°36'0 0.1
2017-Jun-19 18:30N 48°31' W 122°36'0 0.1
2017-Jun-19 18:00N 48°31' W 122°36'0 0.0
2017-Jun-19 17:30N 48°31' W 122°36'0 0.0
2017-Jun-19 17:00N 48°31' W 122°36'0 0.0
2017-Jun-19 16:30N 48°31' W 122°36'0 0.0
2017-Jun-19 16:00N 48°31' W 122°36'1 2.0
2017-Jun-19 15:30N 48°31' W 122°35'0 0.7
2017-Jun-19 15:00N 48°31' W 122°35'1 2.7
2017-Jun-19 14:30N 48°31' W 122°36'0 0.0
2017-Jun-19 07:22N 48°31' W 122°36'3 8.5
2017-Jun-19 07:00N 48°33' W 122°34'1 1.6
2017-Jun-19 06:30N 48°34' W 122°34'4 8.0
2017-Jun-19 06:00N 48°31' W 122°36'5 9.1
2017-Jun-19 05:30N 48°35' W 122°34'1 1.5
2017-Jun-19 05:00N 48°35' W 122°33'4 8.6
2017-Jun-19 04:30N 48°31' W 122°35'1 2.7
2017-Jun-19 04:00N 48°31' W 122°36'0 0.0
2017-Jun-19 03:30N 48°31' W 122°36'0 0.1
2017-Jun-19 03:00N 48°31' W 122°36'0 0.1
2017-Jun-19 02:30N 48°31' W 122°36'0 0.0
2017-Jun-19 02:00N 48°31' W 122°36'0 0.0
2017-Jun-19 01:30N 48°31' W 122°36'0 0.0
2017-Jun-19 01:00N 48°31' W 122°36'0 0.0
2017-Jun-19 00:30N 48°31' W 122°36'0 0.0
2017-Jun-19 00:00N 48°31' W 122°36'1 2.8
2017-Jun-18 23:30N 48°31' W 122°34'0 0.1
2017-Jun-18 23:00N 48°31' W 122°35'1 2.7
2017-Jun-18 22:30N 48°31' W 122°36'0 0.0
2017-Jun-18 22:00N 48°31' W 122°36'0 0.0
2017-Jun-18 21:30N 48°31' W 122°36'0 0.0
2017-Jun-18 21:00N 48°31' W 122°36'0 0.0
2017-Jun-18 20:30N 48°31' W 122°36'0 0.0
2017-Jun-18 20:00N 48°31' W 122°36'1 1.6
2017-Jun-18 19:30N 48°31' W 122°35'1 1.5
2017-Jun-18 19:00N 48°31' W 122°36'0 0.0
2017-Jun-18 18:30N 48°31' W 122°36'0 0.0
2017-Jun-18 18:00N 48°31' W 122°36'0 0.0
2017-Jun-18 17:30N 48°31' W 122°36'0 0.7
2017-Jun-18 17:00N 48°31' W 122°36'0 0.7
2017-Jun-18 16:30N 48°31' W 122°36'0 0.2
2017-Jun-18 16:00N 48°31' W 122°36'1 2.6
2017-Jun-18 15:30N 48°31' W 122°34'0 0.1
2017-Jun-18 15:00N 48°31' W 122°35'1 1.3
2017-Jun-18 14:00N 48°31' W 122°36'  
Track history (hours):
 
Tides and Currents Weather Stations Pressure Air Temp Water Temp Dewpoint Dewpoint Depression Visibility Wind Speed Wind Dir Waves Ship Positions

Sioux Arrow

Owner: HARMON, JACK L, PORT ANGELES, WA. More information available from US FCC via Universal Licensing System and Coast Guard Vessel Documentation Center.

Last reported at 2017-Jun-28 08:52 UTC. Time now 2017-Jun-28 10:27 UTC.
Position N 48°31' W 122°36'.

Type: Port tender. MMSI: 366973370.

Date/timePositionNaut miles runAvg speedWind from/ knotsBaromVisibWave heightAir tempDewpointWater temp
2017-Jun-28 08:52N 48°31' W 122°36'3 8.3
2017-Jun-28 08:30N 48°33' W 122°34'1 1.5
2017-Jun-28 08:00N 48°34' W 122°34'4 7.3
2017-Jun-28 07:30N 48°31' W 122°36'0 0.0
2017-Jun-28 07:00N 48°31' W 122°36'0 0.0
2017-Jun-28 06:30N 48°31' W 122°36'0 0.0
2017-Jun-28 06:00N 48°31' W 122°36'0 0.0
2017-Jun-28 05:30N 48°31' W 122°36'0 0.0
2017-Jun-28 05:00N 48°31' W 122°36'0 0.0
2017-Jun-28 04:30N 48°31' W 122°36'0 0.0
2017-Jun-28 04:00N 48°31' W 122°36'2 4.5
2017-Jun-28 03:30N 48°32' W 122°34'5 9.3
2017-Jun-28 03:00N 48°37' W 122°34'3 6.1
2017-Jun-28 02:30N 48°34' W 122°34'4 7.3
2017-Jun-28 02:00N 48°31' W 122°36'0 0.0
2017-Jun-28 01:30N 48°31' W 122°36'0 0.0
2017-Jun-28 01:00N 48°31' W 122°36'0 0.0
2017-Jun-28 00:30N 48°31' W 122°36'0 0.0
2017-Jun-28 00:00N 48°31' W 122°36'0 0.5
2017-Jun-27 23:30N 48°31' W 122°36'1 2.3
2017-Jun-27 23:00N 48°31' W 122°34'1 1.8
2017-Jun-27 22:30N 48°31' W 122°36'5 7.7
2017-Jun-27 21:54N 48°35' W 122°34'0 1.2
2017-Jun-27 21:30N 48°35' W 122°34'1 1.7
2017-Jun-27 21:00N 48°35' W 122°33'2 4.5
2017-Jun-27 20:30N 48°33' W 122°34'3 5.8
2017-Jun-27 20:00N 48°31' W 122°36'0 0.0
2017-Jun-27 19:30N 48°31' W 122°36'0 0.1
2017-Jun-27 19:00N 48°31' W 122°36'0 0.1
2017-Jun-27 18:30N 48°31' W 122°36'0 0.0
2017-Jun-27 18:00N 48°31' W 122°36'0 0.0
2017-Jun-27 17:30N 48°31' W 122°36'0 0.0
2017-Jun-27 17:00N 48°31' W 122°36'0 0.0
2017-Jun-27 16:30N 48°31' W 122°36'0 0.3
2017-Jun-27 16:00N 48°31' W 122°36'611.0
2017-Jun-27 15:30N 48°36' W 122°32'3 6.3
2017-Jun-27 14:59N 48°33' W 122°35'2 5.3
2017-Jun-27 14:30N 48°31' W 122°36'0 0.0
2017-Jun-27 06:56N 48°31' W 122°36'3 8.0
2017-Jun-27 06:30N 48°34' W 122°34'0 0.4
2017-Jun-27 06:00N 48°34' W 122°34'4 7.2
2017-Jun-27 05:30N 48°31' W 122°36'611.0
2017-Jun-27 04:59N 48°35' W 122°32'1 1.9
2017-Jun-27 04:30N 48°36' W 122°33'3 6.9
2017-Jun-27 04:00N 48°33' W 122°34'2 4.9
2017-Jun-27 03:30N 48°31' W 122°36'0 0.0
2017-Jun-27 03:00N 48°31' W 122°36'0 0.0
2017-Jun-27 02:30N 48°31' W 122°36'3 5.2
2017-Jun-27 02:00N 48°33' W 122°34'3 5.7
2017-Jun-27 01:30N 48°35' W 122°33'3 6.2
2017-Jun-27 01:00N 48°32' W 122°34'2 4.6
2017-Jun-27 00:30N 48°31' W 122°36'0 0.0
2017-Jun-27 00:00N 48°31' W 122°36'2 3.2
2017-Jun-26 23:30N 48°31' W 122°34'0 0.4
2017-Jun-26 23:00N 48°31' W 122°34'2 3.5
2017-Jun-26 22:30N 48°31' W 122°36'0 0.0
2017-Jun-26 22:00N 48°31' W 122°36'0 0.0
2017-Jun-26 21:30N 48°31' W 122°36'0 0.0
2017-Jun-26 21:00N 48°31' W 122°36'0 0.0
2017-Jun-26 20:30N 48°31' W 122°36'0 0.0
2017-Jun-26 20:00N 48°31' W 122°36'1 2.8
2017-Jun-26 19:30N 48°31' W 122°34'0 0.2
2017-Jun-26 19:00N 48°31' W 122°35'1 2.7
2017-Jun-26 18:30N 48°31' W 122°36'0 0.0
2017-Jun-26 18:00N 48°31' W 122°36'1 1.7
2017-Jun-26 17:30N 48°31' W 122°35'1 1.7
2017-Jun-26 17:00N 48°31' W 122°36'0 0.0
2017-Jun-26 16:30N 48°31' W 122°36'0 0.0
2017-Jun-26 16:00N 48°31' W 122°36'510.3
2017-Jun-26 15:30N 48°36' W 122°35'5 9.4
2017-Jun-26 15:00N 48°31' W 122°34'1 2.8
2017-Jun-26 14:30N 48°31' W 122°36'0 0.0
2017-Jun-26 13:30N 48°31' W 122°36'0 0.0
2017-Jun-26 13:00N 48°31' W 122°36'0 0.0
2017-Jun-26 12:30N 48°31' W 122°36'0 0.0
2017-Jun-26 12:00N 48°31' W 122°36'0 0.4
2017-Jun-26 11:30N 48°31' W 122°36'4 7.6
2017-Jun-26 11:00N 48°35' W 122°36'4 7.7
2017-Jun-26 10:30N 48°31' W 122°36'0 0.0
2017-Jun-26 03:28N 48°31' W 122°36'1 2.9
2017-Jun-26 03:00N 48°31' W 122°35'4 8.1
2017-Jun-26 02:31N 48°35' W 122°32'4 7.4
2017-Jun-26 02:00N 48°32' W 122°34'2 3.3
2017-Jun-26 01:30N 48°31' W 122°37'0 0.1
2017-Jun-26 01:01N 48°31' W 122°36'0 0.0
2017-Jun-26 00:31N 48°31' W 122°36'0 0.1
2017-Jun-26 00:01N 48°31' W 122°36'0 0.1
2017-Jun-25 23:31N 48°31' W 122°36'0 0.0
2017-Jun-25 23:01N 48°31' W 122°36'3 5.2
2017-Jun-25 22:30N 48°33' W 122°34'3 6.2
2017-Jun-25 22:01N 48°36' W 122°34'510.8
2017-Jun-25 21:31N 48°31' W 122°36'0 0.1
2017-Jun-25 21:01N 48°31' W 122°36'0 0.0
2017-Jun-25 20:31N 48°31' W 122°36'0 0.0
2017-Jun-25 20:01N 48°31' W 122°36'0 0.6
2017-Jun-25 19:30N 48°31' W 122°36'0 0.6
2017-Jun-25 19:00N 48°31' W 122°36'0 0.0
2017-Jun-25 18:30N 48°31' W 122°36'4 7.7
2017-Jun-25 17:58N 48°34' W 122°34'2 4.4
2017-Jun-25 17:30N 48°36' W 122°33'510.1
2017-Jun-25 17:00N 48°31' W 122°35'1 2.4
2017-Jun-25 16:30N 48°31' W 122°36'0 0.0
2017-Jun-25 16:00N 48°31' W 122°36'1 1.5
2017-Jun-25 15:30N 48°31' W 122°35'1 1.2
2017-Jun-25 15:00N 48°31' W 122°34'1 1.4
2017-Jun-25 14:00N 48°31' W 122°36'4 7.7
2017-Jun-25 13:30N 48°35' W 122°36'2 4.5
2017-Jun-25 13:00N 48°33' W 122°34'2 4.8
2017-Jun-25 12:30N 48°31' W 122°36'2 4.3
2017-Jun-25 12:00N 48°32' W 122°34'3 6.4
2017-Jun-25 11:30N 48°35' W 122°33'510.5
2017-Jun-25 11:00N 48°31' W 122°36'0 0.0
2017-Jun-25 05:12N 48°31' W 122°36'1 7.4
2017-Jun-25 05:00N 48°31' W 122°34'1 2.9
2017-Jun-25 04:30N 48°31' W 122°36'0 0.0
2017-Jun-25 04:00N 48°31' W 122°36'0 0.0
2017-Jun-25 03:30N 48°31' W 122°36'0 0.0
2017-Jun-25 03:00N 48°31' W 122°36'0 0.0
2017-Jun-25 02:30N 48°31' W 122°36'0 0.0
2017-Jun-25 02:00N 48°31' W 122°36'1 2.8
2017-Jun-25 01:30N 48°31' W 122°34'1 2.8
2017-Jun-25 01:00N 48°31' W 122°36'0 0.0
2017-Jun-25 00:30N 48°31' W 122°36'0 0.0
2017-Jun-25 00:00N 48°31' W 122°36'1 2.8
2017-Jun-24 23:30N 48°31' W 122°34'0 0.1
2017-Jun-24 23:00N 48°31' W 122°34'1 2.7
2017-Jun-24 22:30N 48°31' W 122°36'0 0.0
2017-Jun-24 22:00N 48°31' W 122°36'0 0.1
2017-Jun-24 21:30N 48°31' W 122°36'5 9.7
2017-Jun-24 21:00N 48°35' W 122°36'1 1.4
2017-Jun-24 20:31N 48°36' W 122°35'1 1.5
2017-Jun-24 19:59N 48°36' W 122°34'5 9.7
2017-Jun-24 19:30N 48°31' W 122°35'1 2.8
2017-Jun-24 19:00N 48°31' W 122°36'0 0.0
2017-Jun-24 18:30N 48°31' W 122°36'0 0.0
2017-Jun-24 18:00N 48°31' W 122°36'0 0.0
2017-Jun-24 17:30N 48°31' W 122°36'0 0.3
2017-Jun-24 17:00N 48°31' W 122°36'0 0.3
2017-Jun-24 16:30N 48°31' W 122°36'0 0.0
2017-Jun-24 16:00N 48°31' W 122°36'0 0.0
2017-Jun-24 15:30N 48°31' W 122°36'0 0.0
2017-Jun-24 15:00N 48°31' W 122°36'0 0.0
2017-Jun-24 14:00N 48°31' W 122°36'510.5
2017-Jun-24 13:30N 48°35' W 122°33'5 9.2
2017-Jun-24 13:00N 48°31' W 122°35'1 1.6
2017-Jun-24 12:30N 48°31' W 122°36'1 2.2
2017-Jun-24 12:00N 48°31' W 122°35'0 0.5
2017-Jun-24 11:30N 48°31' W 122°35'1 2.7
2017-Jun-24 11:00N 48°31' W 122°36'0 0.0
2017-Jun-24 04:35N 48°31' W 122°36'0 0.0
2017-Jun-24 04:30N 48°31' W 122°36'0 0.0
2017-Jun-24 04:00N 48°31' W 122°36'0 0.0
2017-Jun-24 03:30N 48°31' W 122°36'0 0.0
2017-Jun-24 03:00N 48°31' W 122°36'0 0.0
2017-Jun-24 02:30N 48°31' W 122°36'0 0.0
2017-Jun-24 02:00N 48°31' W 122°36'2 4.1
2017-Jun-24 01:30N 48°32' W 122°34'4 7.3
2017-Jun-24 01:00N 48°36' W 122°33'611.3
2017-Jun-24 00:30N 48°31' W 122°36'0 0.0
2017-Jun-24 00:00N 48°31' W 122°36'3 5.8
2017-Jun-23 23:30N 48°33' W 122°35'2 4.8
2017-Jun-23 23:00N 48°36' W 122°35'3 5.7
2017-Jun-23 22:30N 48°36' W 122°31'0 0.6
2017-Jun-23 22:00N 48°36' W 122°31'0 0.7
2017-Jun-23 21:30N 48°37' W 122°32'1 1.1
2017-Jun-23 20:54N 48°37' W 122°33'7 3.0
2017-Jun-23 18:42N 48°31' W 122°36'1 3.1
2017-Jun-23 18:13N 48°31' W 122°35'313.1
2017-Jun-23 17:59N 48°35' W 122°34'3 1.4
2017-Jun-23 15:48N 48°31' W 122°35'412.6
2017-Jun-23 15:30N 48°35' W 122°34'1 0.8
2017-Jun-23 14:00N 48°36' W 122°33'2 0.2
2017-Jun-23 03:02N 48°34' W 122°34'0 8.5
2017-Jun-23 03:00N 48°35' W 122°34'0 0.0
2017-Jun-22 22:51N 48°35' W 122°34'2 1.5
2017-Jun-22 21:39N 48°35' W 122°32'0 0.0
2017-Jun-22 21:24N 48°35' W 122°32'1 1.0
2017-Jun-22 20:49N 48°35' W 122°32'410.4
2017-Jun-22 20:26N 48°32' W 122°34'2 4.4
2017-Jun-22 20:00N 48°31' W 122°36'0 0.0
2017-Jun-22 18:33N 48°31' W 122°36'0 0.0
2017-Jun-22 18:30N 48°31' W 122°36'1 0.9
2017-Jun-22 17:51N 48°31' W 122°36'412.1
2017-Jun-22 17:30N 48°35' W 122°34'1 1.9
2017-Jun-22 16:59N 48°35' W 122°33'0 0.5
2017-Jun-22 16:13N 48°36' W 122°33'0 0.0
2017-Jun-22 16:00N 48°36' W 122°33'0 0.6
2017-Jun-22 15:27N 48°35' W 122°33'5 0.5
2017-Jun-22 04:14N 48°31' W 122°36'0 0.0
2017-Jun-22 04:00N 48°31' W 122°36'0 0.0
2017-Jun-22 03:29N 48°31' W 122°36'0 0.0
2017-Jun-22 03:00N 48°31' W 122°36'1 0.2
2017-Jun-21 19:45N 48°31' W 122°35'311.9
2017-Jun-21 19:29N 48°35' W 122°34'2 1.8
2017-Jun-21 18:31N 48°36' W 122°32'0 7.7
2017-Jun-21 18:29N 48°36' W 122°32'6 2.4
2017-Jun-21 16:08N 48°31' W 122°36'0 0.0
2017-Jun-21 16:00N 48°31' W 122°36'0 0.1
2017-Jun-21 15:31N 48°31' W 122°36'1 2.9
2017-Jun-21 15:00N 48°31' W 122°34'2 3.0
2017-Jun-21 14:30N 48°31' W 122°36'0 0.0
2017-Jun-21 04:02N 48°31' W 122°36'0 0.0
2017-Jun-21 04:00N 48°31' W 122°36'0 0.0
2017-Jun-21 03:30N 48°31' W 122°36'0 0.0
2017-Jun-21 03:00N 48°31' W 122°36'0 0.2
2017-Jun-21 02:30N 48°31' W 122°36'0 0.2
2017-Jun-21 02:01N 48°31' W 122°36'2 3.4
2017-Jun-21 01:31N 48°31' W 122°34'2 3.3
2017-Jun-21 01:00N 48°31' W 122°36'0 0.0
2017-Jun-21 00:30N 48°31' W 122°36'0 0.0
2017-Jun-21 00:01N 48°31' W 122°36'0 0.0
2017-Jun-20 23:31N 48°31' W 122°36'0 0.0
2017-Jun-20 23:00N 48°31' W 122°36'0 0.0
2017-Jun-20 22:30N 48°31' W 122°36'0 0.0
2017-Jun-20 22:00N 48°31' W 122°36'1 2.1
2017-Jun-20 21:30N 48°31' W 122°35'1 2.1
2017-Jun-20 21:01N 48°31' W 122°36'0 0.0
2017-Jun-20 20:30N 48°31' W 122°36'0 0.0
2017-Jun-20 20:01N 48°31' W 122°36'0 0.0
2017-Jun-20 19:30N 48°31' W 122°36'0 0.4
2017-Jun-20 19:00N 48°31' W 122°36'510.0
2017-Jun-20 18:29N 48°35' W 122°32'4 8.5
2017-Jun-20 18:00N 48°32' W 122°34'2 3.4
2017-Jun-20 17:30N 48°31' W 122°37'1 1.2
2017-Jun-20 17:01N 48°31' W 122°36'510.6
2017-Jun-20 16:30N 48°36' W 122°32'0 0.5
2017-Jun-20 16:00N 48°35' W 122°32'0 0.5
2017-Jun-20 15:30N 48°35' W 122°33'5 9.9
2017-Jun-20 15:00N 48°31' W 122°36'1 1.4
2017-Jun-20 14:30N 48°31' W 122°37'0 0.0
2017-Jun-20 03:20N 48°31' W 122°36'0 0.0
2017-Jun-20 03:00N 48°31' W 122°36'0 0.0
2017-Jun-20 02:30N 48°31' W 122°36'0 0.0
2017-Jun-20 02:00N 48°31' W 122°36'0 0.2
2017-Jun-20 01:30N 48°31' W 122°36'0 0.2
2017-Jun-20 01:00N 48°31' W 122°36'0 0.0
2017-Jun-20 00:30N 48°31' W 122°36'0 0.0
2017-Jun-20 00:00N 48°31' W 122°36'1 1.9
2017-Jun-19 23:30N 48°31' W 122°35'0 1.0
2017-Jun-19 23:00N 48°31' W 122°34'1 2.9
2017-Jun-19 22:30N 48°31' W 122°36'0 0.0
2017-Jun-19 22:00N 48°31' W 122°36'5 9.8
2017-Jun-19 21:30N 48°35' W 122°34'3 5.2
2017-Jun-19 21:00N 48°33' W 122°34'2 4.9
2017-Jun-19 20:30N 48°31' W 122°36'0 0.0
2017-Jun-19 20:00N 48°31' W 122°36'0 0.0
2017-Jun-19 19:30N 48°31' W 122°36'0 0.0
2017-Jun-19 19:00N 48°31' W 122°36'0 0.1
2017-Jun-19 18:30N 48°31' W 122°36'0 0.1
2017-Jun-19 18:00N 48°31' W 122°36'0 0.0
2017-Jun-19 17:30N 48°31' W 122°36'0 0.0
2017-Jun-19 17:00N 48°31' W 122°36'0 0.0
2017-Jun-19 16:30N 48°31' W 122°36'0 0.0
2017-Jun-19 16:00N 48°31' W 122°36'1 2.0
2017-Jun-19 15:30N 48°31' W 122°35'0 0.7
2017-Jun-19 15:00N 48°31' W 122°35'1 2.7
2017-Jun-19 14:30N 48°31' W 122°36'0 0.0
2017-Jun-19 07:22N 48°31' W 122°36'3 8.5
2017-Jun-19 07:00N 48°33' W 122°34'1 1.6
2017-Jun-19 06:30N 48°34' W 122°34'4 8.0
2017-Jun-19 06:00N 48°31' W 122°36'5 9.1
2017-Jun-19 05:30N 48°35' W 122°34'1 1.5
2017-Jun-19 05:00N 48°35' W 122°33'4 8.6
2017-Jun-19 04:30N 48°31' W 122°35'1 2.7
2017-Jun-19 04:00N 48°31' W 122°36'0 0.0
2017-Jun-19 03:30N 48°31' W 122°36'0 0.1
2017-Jun-19 03:00N 48°31' W 122°36'0 0.1
2017-Jun-19 02:30N 48°31' W 122°36'0 0.0
2017-Jun-19 02:00N 48°31' W 122°36'0 0.0
2017-Jun-19 01:30N 48°31' W 122°36'0 0.0
2017-Jun-19 01:00N 48°31' W 122°36'0 0.0
2017-Jun-19 00:30N 48°31' W 122°36'0 0.0
2017-Jun-19 00:00N 48°31' W 122°36'1 2.8
2017-Jun-18 23:30N 48°31' W 122°34'0 0.1
2017-Jun-18 23:00N 48°31' W 122°35'1 2.7
2017-Jun-18 22:30N 48°31' W 122°36'0 0.0
2017-Jun-18 22:00N 48°31' W 122°36'0 0.0
2017-Jun-18 21:30N 48°31' W 122°36'0 0.0
2017-Jun-18 21:00N 48°31' W 122°36'0 0.0
2017-Jun-18 20:30N 48°31' W 122°36'0 0.0
2017-Jun-18 20:00N 48°31' W 122°36'1 1.6
2017-Jun-18 19:30N 48°31' W 122°35'1 1.5
2017-Jun-18 19:00N 48°31' W 122°36'0 0.0
2017-Jun-18 18:30N 48°31' W 122°36'0 0.0
2017-Jun-18 18:00N 48°31' W 122°36'0 0.0
2017-Jun-18 17:30N 48°31' W 122°36'0 0.7
2017-Jun-18 17:00N 48°31' W 122°36'0 0.7
2017-Jun-18 16:30N 48°31' W 122°36'0 0.2
2017-Jun-18 16:00N 48°31' W 122°36'1 2.6
2017-Jun-18 15:30N 48°31' W 122°34'0 0.1
2017-Jun-18 15:00N 48°31' W 122°35'1 1.3
2017-Jun-18 14:00N 48°31' W 122°36'  

Dump ship's entire track history